sensor_id;sensor_type;location;lat;lon;timestamp;P1;durP1;ratioP1;P2;durP2;ratioP2
21181;SDS011;10749;46.296;7.524;2022-11-25T00:00:49;3.67;;;2.40;;
21181;SDS011;10749;46.296;7.524;2022-11-25T00:03:15;3.00;;;1.93;;
21181;SDS011;10749;46.296;7.524;2022-11-25T00:05:40;3.73;;;1.70;;
21181;SDS011;10749;46.296;7.524;2022-11-25T00:08:06;2.30;;;1.50;;
21181;SDS011;10749;46.296;7.524;2022-11-25T00:10:31;4.27;;;1.67;;
21181;SDS011;10749;46.296;7.524;2022-11-25T00:12:56;3.03;;;1.50;;
21181;SDS011;10749;46.296;7.524;2022-11-25T00:15:22;3.43;;;1.70;;
21181;SDS011;10749;46.296;7.524;2022-11-25T00:17:47;4.33;;;1.60;;
21181;SDS011;10749;46.296;7.524;2022-11-25T00:20:12;4.73;;;1.50;;
21181;SDS011;10749;46.296;7.524;2022-11-25T00:22:38;3.70;;;2.00;;
21181;SDS011;10749;46.296;7.524;2022-11-25T00:25:03;4.10;;;1.83;;
21181;SDS011;10749;46.296;7.524;2022-11-25T00:27:29;4.60;;;1.77;;
21181;SDS011;10749;46.296;7.524;2022-11-25T00:29:54;2.90;;;1.60;;
21181;SDS011;10749;46.296;7.524;2022-11-25T00:32:19;2.77;;;1.67;;
21181;SDS011;10749;46.296;7.524;2022-11-25T00:34:44;3.43;;;2.73;;
21181;SDS011;10749;46.296;7.524;2022-11-25T00:37:10;6.00;;;3.20;;
21181;SDS011;10749;46.296;7.524;2022-11-25T00:39:35;6.23;;;4.07;;
21181;SDS011;10749;46.296;7.524;2022-11-25T00:42:00;4.87;;;3.40;;
21181;SDS011;10749;46.296;7.524;2022-11-25T00:44:44;5.07;;;2.83;;
21181;SDS011;10749;46.296;7.524;2022-11-25T00:47:11;4.40;;;3.47;;
21181;SDS011;10749;46.296;7.524;2022-11-25T00:49:39;5.83;;;3.37;;
21181;SDS011;10749;46.296;7.524;2022-11-25T00:52:06;4.43;;;3.20;;
21181;SDS011;10749;46.296;7.524;2022-11-25T00:54:33;5.97;;;3.00;;
21181;SDS011;10749;46.296;7.524;2022-11-25T00:56:59;5.43;;;2.97;;
21181;SDS011;10749;46.296;7.524;2022-11-25T00:59:24;5.53;;;2.50;;
21181;SDS011;10749;46.296;7.524;2022-11-25T01:01:50;5.23;;;2.57;;
21181;SDS011;10749;46.296;7.524;2022-11-25T01:04:15;5.80;;;3.07;;
21181;SDS011;10749;46.296;7.524;2022-11-25T01:06:41;6.30;;;2.53;;
21181;SDS011;10749;46.296;7.524;2022-11-25T01:09:07;4.23;;;2.57;;
21181;SDS011;10749;46.296;7.524;2022-11-25T01:11:34;4.30;;;2.90;;
21181;SDS011;10749;46.296;7.524;2022-11-25T01:14:00;3.87;;;2.60;;
21181;SDS011;10749;46.296;7.524;2022-11-25T01:16:25;5.00;;;2.77;;
21181;SDS011;10749;46.296;7.524;2022-11-25T01:18:51;4.37;;;3.00;;
21181;SDS011;10749;46.296;7.524;2022-11-25T01:21:17;4.50;;;2.80;;
21181;SDS011;10749;46.296;7.524;2022-11-25T01:23:50;5.90;;;3.40;;
21181;SDS011;10749;46.296;7.524;2022-11-25T01:26:17;6.70;;;2.93;;
21181;SDS011;10749;46.296;7.524;2022-11-25T01:28:44;9.03;;;3.60;;
21181;SDS011;10749;46.296;7.524;2022-11-25T01:31:11;6.00;;;3.20;;
21181;SDS011;10749;46.296;7.524;2022-11-25T01:33:39;5.73;;;3.50;;
21181;SDS011;10749;46.296;7.524;2022-11-25T01:36:05;5.30;;;3.67;;
21181;SDS011;10749;46.296;7.524;2022-11-25T01:38:35;5.57;;;2.50;;
21181;SDS011;10749;46.296;7.524;2022-11-25T01:41:00;3.80;;;2.07;;
21181;SDS011;10749;46.296;7.524;2022-11-25T01:43:27;4.70;;;2.50;;
21181;SDS011;10749;46.296;7.524;2022-11-25T01:45:57;4.87;;;2.33;;
21181;SDS011;10749;46.296;7.524;2022-11-25T01:48:27;3.90;;;1.90;;
21181;SDS011;10749;46.296;7.524;2022-11-25T01:51:15;3.30;;;2.60;;
21181;SDS011;10749;46.296;7.524;2022-11-25T01:53:45;7.07;;;2.60;;
21181;SDS011;10749;46.296;7.524;2022-11-25T01:56:12;4.00;;;2.57;;
21181;SDS011;10749;46.296;7.524;2022-11-25T01:58:38;3.87;;;2.60;;
21181;SDS011;10749;46.296;7.524;2022-11-25T02:01:05;6.20;;;2.83;;
21181;SDS011;10749;46.296;7.524;2022-11-25T02:03:32;4.53;;;2.77;;
21181;SDS011;10749;46.296;7.524;2022-11-25T02:08:45;6.00;;;3.10;;
21181;SDS011;10749;46.296;7.524;2022-11-25T02:11:13;5.40;;;2.80;;
21181;SDS011;10749;46.296;7.524;2022-11-25T02:13:41;6.10;;;2.77;;
21181;SDS011;10749;46.296;7.524;2022-11-25T02:16:07;4.27;;;2.73;;
21181;SDS011;10749;46.296;7.524;2022-11-25T02:18:32;4.67;;;2.90;;
21181;SDS011;10749;46.296;7.524;2022-11-25T02:20:57;5.50;;;3.40;;
21181;SDS011;10749;46.296;7.524;2022-11-25T02:25:51;4.27;;;2.90;;
21181;SDS011;10749;46.296;7.524;2022-11-25T02:30:48;5.37;;;2.93;;
21181;SDS011;10749;46.296;7.524;2022-11-25T02:33:14;6.50;;;2.80;;
21181;SDS011;10749;46.296;7.524;2022-11-25T02:38:16;5.60;;;2.67;;
21181;SDS011;10749;46.296;7.524;2022-11-25T02:41:05;4.30;;;2.83;;
21181;SDS011;10749;46.296;7.524;2022-11-25T02:43:34;2.50;;;2.10;;
21181;SDS011;10749;46.296;7.524;2022-11-25T02:46:02;4.10;;;2.50;;
21181;SDS011;10749;46.296;7.524;2022-11-25T02:48:30;4.17;;;2.47;;
21181;SDS011;10749;46.296;7.524;2022-11-25T02:50:57;5.67;;;2.20;;
21181;SDS011;10749;46.296;7.524;2022-11-25T02:53:23;3.73;;;2.17;;
21181;SDS011;10749;46.296;7.524;2022-11-25T02:55:49;3.13;;;2.00;;
21181;SDS011;10749;46.296;7.524;2022-11-25T02:58:14;3.47;;;2.20;;
21181;SDS011;10749;46.296;7.524;2022-11-25T03:00:40;3.43;;;1.93;;
21181;SDS011;10749;46.296;7.524;2022-11-25T03:03:06;2.83;;;1.60;;
21181;SDS011;10749;46.296;7.524;2022-11-25T03:05:32;3.50;;;1.80;;
21181;SDS011;10749;46.296;7.524;2022-11-25T03:07:57;2.43;;;1.70;;
21181;SDS011;10749;46.296;7.524;2022-11-25T03:10:23;4.00;;;1.90;;
21181;SDS011;10749;46.296;7.524;2022-11-25T03:12:48;2.83;;;1.57;;
21181;SDS011;10749;46.296;7.524;2022-11-25T03:15:13;4.00;;;1.80;;
21181;SDS011;10749;46.296;7.524;2022-11-25T03:17:39;2.30;;;1.53;;
21181;SDS011;10749;46.296;7.524;2022-11-25T03:20:05;3.97;;;1.80;;
21181;SDS011;10749;46.296;7.524;2022-11-25T03:22:32;2.63;;;1.43;;
21181;SDS011;10749;46.296;7.524;2022-11-25T03:24:57;3.60;;;1.43;;
21181;SDS011;10749;46.296;7.524;2022-11-25T03:27:22;2.60;;;1.20;;
21181;SDS011;10749;46.296;7.524;2022-11-25T03:29:48;3.33;;;1.60;;
21181;SDS011;10749;46.296;7.524;2022-11-25T03:32:13;3.50;;;2.20;;
21181;SDS011;10749;46.296;7.524;2022-11-25T03:34:39;3.47;;;1.83;;
21181;SDS011;10749;46.296;7.524;2022-11-25T03:37:04;2.97;;;1.87;;
21181;SDS011;10749;46.296;7.524;2022-11-25T03:39:30;2.67;;;1.97;;
21181;SDS011;10749;46.296;7.524;2022-11-25T03:41:55;4.53;;;2.30;;
21181;SDS011;10749;46.296;7.524;2022-11-25T03:44:21;4.70;;;2.30;;
21181;SDS011;10749;46.296;7.524;2022-11-25T03:46:46;3.27;;;2.00;;
21181;SDS011;10749;46.296;7.524;2022-11-25T03:49:11;4.53;;;2.50;;
21181;SDS011;10749;46.296;7.524;2022-11-25T03:51:36;4.03;;;2.00;;
21181;SDS011;10749;46.296;7.524;2022-11-25T03:54:02;5.00;;;2.50;;
21181;SDS011;10749;46.296;7.524;2022-11-25T03:56:27;5.57;;;2.13;;
21181;SDS011;10749;46.296;7.524;2022-11-25T03:58:52;3.60;;;2.10;;
21181;SDS011;10749;46.296;7.524;2022-11-25T04:01:18;3.27;;;1.60;;
21181;SDS011;10749;46.296;7.524;2022-11-25T04:03:43;3.43;;;2.20;;
21181;SDS011;10749;46.296;7.524;2022-11-25T04:06:08;3.47;;;2.43;;
21181;SDS011;10749;46.296;7.524;2022-11-25T04:08:34;6.13;;;2.50;;
21181;SDS011;10749;46.296;7.524;2022-11-25T04:10:59;3.10;;;2.37;;
21181;SDS011;10749;46.296;7.524;2022-11-25T04:13:24;3.27;;;2.13;;
21181;SDS011;10749;46.296;7.524;2022-11-25T04:15:50;3.50;;;1.90;;
21181;SDS011;10749;46.296;7.524;2022-11-25T04:18:16;3.80;;;2.10;;
21181;SDS011;10749;46.296;7.524;2022-11-25T04:20:42;2.57;;;2.10;;
21181;SDS011;10749;46.296;7.524;2022-11-25T04:23:08;1.97;;;1.33;;
21181;SDS011;10749;46.296;7.524;2022-11-25T04:25:34;3.53;;;1.57;;
21181;SDS011;10749;46.296;7.524;2022-11-25T04:28:00;1.67;;;1.40;;
21181;SDS011;10749;46.296;7.524;2022-11-25T04:30:26;2.40;;;1.70;;
21181;SDS011;10749;46.296;7.524;2022-11-25T04:32:51;3.53;;;1.50;;
21181;SDS011;10749;46.296;7.524;2022-11-25T04:35:16;2.27;;;1.37;;
21181;SDS011;10749;46.296;7.524;2022-11-25T04:37:42;2.33;;;1.60;;
21181;SDS011;10749;46.296;7.524;2022-11-25T04:40:07;2.80;;;1.70;;
21181;SDS011;10749;46.296;7.524;2022-11-25T04:42:33;2.37;;;1.50;;
21181;SDS011;10749;46.296;7.524;2022-11-25T04:45:01;3.20;;;1.70;;
21181;SDS011;10749;46.296;7.524;2022-11-25T04:47:28;2.90;;;1.87;;
21181;SDS011;10749;46.296;7.524;2022-11-25T04:49:54;2.80;;;2.10;;
21181;SDS011;10749;46.296;7.524;2022-11-25T04:52:20;2.23;;;1.70;;
21181;SDS011;10749;46.296;7.524;2022-11-25T04:54:45;5.67;;;1.90;;
21181;SDS011;10749;46.296;7.524;2022-11-25T04:57:14;3.57;;;2.13;;
21181;SDS011;10749;46.296;7.524;2022-11-25T04:59:40;4.40;;;2.10;;
21181;SDS011;10749;46.296;7.524;2022-11-25T05:04:39;3.03;;;2.00;;
21181;SDS011;10749;46.296;7.524;2022-11-25T05:07:06;3.50;;;1.67;;
21181;SDS011;10749;46.296;7.524;2022-11-25T05:09:32;4.27;;;1.83;;
21181;SDS011;10749;46.296;7.524;2022-11-25T05:11:57;5.00;;;1.80;;
21181;SDS011;10749;46.296;7.524;2022-11-25T05:14:23;3.90;;;1.73;;
21181;SDS011;10749;46.296;7.524;2022-11-25T05:16:49;3.87;;;1.83;;
21181;SDS011;10749;46.296;7.524;2022-11-25T05:19:15;2.70;;;1.70;;
21181;SDS011;10749;46.296;7.524;2022-11-25T05:21:40;2.43;;;1.80;;
21181;SDS011;10749;46.296;7.524;2022-11-25T05:24:05;7.13;;;1.87;;
21181;SDS011;10749;46.296;7.524;2022-11-25T05:26:31;3.23;;;1.97;;
21181;SDS011;10749;46.296;7.524;2022-11-25T05:28:56;3.67;;;1.67;;
21181;SDS011;10749;46.296;7.524;2022-11-25T05:31:21;3.00;;;1.80;;
21181;SDS011;10749;46.296;7.524;2022-11-25T05:33:47;2.93;;;1.90;;
21181;SDS011;10749;46.296;7.524;2022-11-25T05:36:12;2.47;;;1.83;;
21181;SDS011;10749;46.296;7.524;2022-11-25T05:38:37;2.97;;;1.80;;
21181;SDS011;10749;46.296;7.524;2022-11-25T05:41:03;4.63;;;2.00;;
21181;SDS011;10749;46.296;7.524;2022-11-25T05:43:31;4.20;;;2.10;;
21181;SDS011;10749;46.296;7.524;2022-11-25T05:45:56;4.20;;;2.40;;
21181;SDS011;10749;46.296;7.524;2022-11-25T05:48:22;3.23;;;2.13;;
21181;SDS011;10749;46.296;7.524;2022-11-25T05:50:47;3.23;;;2.20;;
21181;SDS011;10749;46.296;7.524;2022-11-25T05:53:12;4.20;;;2.17;;
21181;SDS011;10749;46.296;7.524;2022-11-25T05:55:41;3.57;;;2.03;;
21181;SDS011;10749;46.296;7.524;2022-11-25T05:58:06;4.10;;;2.20;;
21181;SDS011;10749;46.296;7.524;2022-11-25T06:00:31;5.43;;;2.47;;
21181;SDS011;10749;46.296;7.524;2022-11-25T06:02:57;4.60;;;2.50;;
21181;SDS011;10749;46.296;7.524;2022-11-25T06:05:22;5.90;;;2.47;;
21181;SDS011;10749;46.296;7.524;2022-11-25T06:07:48;3.30;;;2.30;;
21181;SDS011;10749;46.296;7.524;2022-11-25T06:10:14;4.23;;;2.50;;
21181;SDS011;10749;46.296;7.524;2022-11-25T06:12:40;3.90;;;2.10;;
21181;SDS011;10749;46.296;7.524;2022-11-25T06:15:05;6.90;;;2.23;;
21181;SDS011;10749;46.296;7.524;2022-11-25T06:17:31;9.03;;;2.20;;
21181;SDS011;10749;46.296;7.524;2022-11-25T06:19:57;7.53;;;2.03;;
21181;SDS011;10749;46.296;7.524;2022-11-25T06:22:22;4.60;;;1.90;;
21181;SDS011;10749;46.296;7.524;2022-11-25T06:24:47;6.20;;;1.67;;
21181;SDS011;10749;46.296;7.524;2022-11-25T06:27:12;4.03;;;1.40;;
21181;SDS011;10749;46.296;7.524;2022-11-25T06:29:38;3.30;;;1.47;;
21181;SDS011;10749;46.296;7.524;2022-11-25T06:32:03;3.53;;;1.40;;
21181;SDS011;10749;46.296;7.524;2022-11-25T06:34:28;2.67;;;1.30;;
21181;SDS011;10749;46.296;7.524;2022-11-25T06:36:54;2.10;;;1.53;;
21181;SDS011;10749;46.296;7.524;2022-11-25T06:39:19;3.20;;;1.30;;
21181;SDS011;10749;46.296;7.524;2022-11-25T06:41:44;4.70;;;1.60;;
21181;SDS011;10749;46.296;7.524;2022-11-25T06:44:11;3.33;;;1.53;;
21181;SDS011;10749;46.296;7.524;2022-11-25T06:46:37;3.23;;;1.50;;
21181;SDS011;10749;46.296;7.524;2022-11-25T06:49:02;3.90;;;2.07;;
21181;SDS011;10749;46.296;7.524;2022-11-25T06:51:27;4.63;;;2.00;;
21181;SDS011;10749;46.296;7.524;2022-11-25T06:53:53;5.00;;;2.40;;
21181;SDS011;10749;46.296;7.524;2022-11-25T06:56:19;3.60;;;2.23;;
21181;SDS011;10749;46.296;7.524;2022-11-25T06:58:46;2.30;;;1.40;;
21181;SDS011;10749;46.296;7.524;2022-11-25T07:01:13;2.77;;;1.50;;
21181;SDS011;10749;46.296;7.524;2022-11-25T07:03:41;3.67;;;1.60;;
21181;SDS011;10749;46.296;7.524;2022-11-25T07:06:08;4.00;;;2.00;;
21181;SDS011;10749;46.296;7.524;2022-11-25T07:08:38;4.33;;;1.93;;
21181;SDS011;10749;46.296;7.524;2022-11-25T07:11:09;4.60;;;1.60;;
21181;SDS011;10749;46.296;7.524;2022-11-25T07:13:38;4.97;;;1.50;;
21181;SDS011;10749;46.296;7.524;2022-11-25T07:16:04;19.10;;;4.57;;
21181;SDS011;10749;46.296;7.524;2022-11-25T07:18:32;6.23;;;2.00;;
21181;SDS011;10749;46.296;7.524;2022-11-25T07:21:06;5.87;;;2.37;;
21181;SDS011;10749;46.296;7.524;2022-11-25T07:23:32;12.23;;;2.80;;
21181;SDS011;10749;46.296;7.524;2022-11-25T07:26:04;3.97;;;2.20;;
21181;SDS011;10749;46.296;7.524;2022-11-25T07:28:32;5.03;;;1.60;;
21181;SDS011;10749;46.296;7.524;2022-11-25T07:33:43;2.37;;;1.30;;
21181;SDS011;10749;46.296;7.524;2022-11-25T07:36:11;2.60;;;1.50;;
21181;SDS011;10749;46.296;7.524;2022-11-25T07:38:38;2.13;;;1.77;;
21181;SDS011;10749;46.296;7.524;2022-11-25T07:41:10;5.70;;;2.00;;
21181;SDS011;10749;46.296;7.524;2022-11-25T07:43:39;3.87;;;1.97;;
21181;SDS011;10749;46.296;7.524;2022-11-25T07:46:18;7.23;;;2.80;;
21181;SDS011;10749;46.296;7.524;2022-11-25T07:48:53;6.57;;;3.03;;
21181;SDS011;10749;46.296;7.524;2022-11-25T07:51:20;5.20;;;2.43;;
21181;SDS011;10749;46.296;7.524;2022-11-25T07:53:57;4.90;;;2.00;;
21181;SDS011;10749;46.296;7.524;2022-11-25T07:56:25;5.77;;;2.13;;
21181;SDS011;10749;46.296;7.524;2022-11-25T07:58:50;4.50;;;2.00;;
21181;SDS011;10749;46.296;7.524;2022-11-25T08:01:16;4.60;;;2.17;;
21181;SDS011;10749;46.296;7.524;2022-11-25T08:03:42;3.43;;;2.20;;
21181;SDS011;10749;46.296;7.524;2022-11-25T08:06:09;5.60;;;2.50;;
21181;SDS011;10749;46.296;7.524;2022-11-25T08:08:37;4.43;;;2.67;;
21181;SDS011;10749;46.296;7.524;2022-11-25T08:11:10;7.40;;;2.33;;
21181;SDS011;10749;46.296;7.524;2022-11-25T08:13:36;4.63;;;2.40;;
21181;SDS011;10749;46.296;7.524;2022-11-25T08:16:02;7.00;;;3.30;;
21181;SDS011;10749;46.296;7.524;2022-11-25T08:18:27;7.93;;;3.70;;
21181;SDS011;10749;46.296;7.524;2022-11-25T08:20:57;5.10;;;2.83;;
21181;SDS011;10749;46.296;7.524;2022-11-25T08:23:28;14.53;;;5.80;;
21181;SDS011;10749;46.296;7.524;2022-11-25T08:25:53;12.20;;;7.70;;
21181;SDS011;10749;46.296;7.524;2022-11-25T08:28:19;17.67;;;9.40;;
21181;SDS011;10749;46.296;7.524;2022-11-25T08:30:44;18.33;;;10.23;;
21181;SDS011;10749;46.296;7.524;2022-11-25T08:33:09;19.10;;;11.57;;
21181;SDS011;10749;46.296;7.524;2022-11-25T08:35:35;9.33;;;5.03;;
21181;SDS011;10749;46.296;7.524;2022-11-25T08:38:03;8.23;;;3.43;;
21181;SDS011;10749;46.296;7.524;2022-11-25T08:40:29;7.17;;;3.30;;
21181;SDS011;10749;46.296;7.524;2022-11-25T08:42:55;5.47;;;2.70;;
21181;SDS011;10749;46.296;7.524;2022-11-25T08:45:20;5.80;;;2.70;;
21181;SDS011;10749;46.296;7.524;2022-11-25T08:47:46;5.90;;;2.80;;
21181;SDS011;10749;46.296;7.524;2022-11-25T08:50:12;8.03;;;2.53;;
21181;SDS011;10749;46.296;7.524;2022-11-25T08:52:38;7.63;;;2.83;;
21181;SDS011;10749;46.296;7.524;2022-11-25T08:55:04;3.87;;;2.80;;
21181;SDS011;10749;46.296;7.524;2022-11-25T08:57:30;5.20;;;2.33;;
21181;SDS011;10749;46.296;7.524;2022-11-25T08:59:55;4.80;;;2.93;;
21181;SDS011;10749;46.296;7.524;2022-11-25T09:02:20;4.00;;;2.60;;
21181;SDS011;10749;46.296;7.524;2022-11-25T09:04:45;6.63;;;2.97;;
21181;SDS011;10749;46.296;7.524;2022-11-25T09:07:11;6.83;;;2.70;;
21181;SDS011;10749;46.296;7.524;2022-11-25T09:09:36;7.57;;;2.77;;
21181;SDS011;10749;46.296;7.524;2022-11-25T09:12:02;7.77;;;3.10;;
21181;SDS011;10749;46.296;7.524;2022-11-25T09:14:28;11.20;;;4.03;;
21181;SDS011;10749;46.296;7.524;2022-11-25T09:16:53;10.10;;;4.07;;
21181;SDS011;10749;46.296;7.524;2022-11-25T09:19:20;8.73;;;4.20;;
21181;SDS011;10749;46.296;7.524;2022-11-25T09:21:46;7.73;;;4.30;;
21181;SDS011;10749;46.296;7.524;2022-11-25T09:24:12;10.40;;;4.13;;
21181;SDS011;10749;46.296;7.524;2022-11-25T09:26:37;8.43;;;3.93;;
21181;SDS011;10749;46.296;7.524;2022-11-25T09:29:05;10.90;;;5.03;;
21181;SDS011;10749;46.296;7.524;2022-11-25T09:31:31;10.00;;;4.57;;
21181;SDS011;10749;46.296;7.524;2022-11-25T09:33:56;9.00;;;4.67;;
21181;SDS011;10749;46.296;7.524;2022-11-25T09:36:22;14.20;;;5.00;;
21181;SDS011;10749;46.296;7.524;2022-11-25T09:38:49;11.87;;;4.80;;
21181;SDS011;10749;46.296;7.524;2022-11-25T09:41:17;12.27;;;4.57;;
21181;SDS011;10749;46.296;7.524;2022-11-25T09:44:16;7.87;;;3.60;;
21181;SDS011;10749;46.296;7.524;2022-11-25T09:47:56;5.87;;;3.60;;
21181;SDS011;10749;46.296;7.524;2022-11-25T09:56:13;7.17;;;3.03;;
21181;SDS011;10749;46.296;7.524;2022-11-25T10:01:49;5.30;;;2.97;;
21181;SDS011;10749;46.296;7.524;2022-11-25T10:04:28;5.40;;;2.70;;
21181;SDS011;10749;46.296;7.524;2022-11-25T10:07:00;6.77;;;2.57;;
21181;SDS011;10749;46.296;7.524;2022-11-25T10:09:28;10.87;;;2.07;;
21181;SDS011;10749;46.296;7.524;2022-11-25T10:12:03;3.23;;;2.13;;
21181;SDS011;10749;46.296;7.524;2022-11-25T10:14:44;7.40;;;2.10;;
21181;SDS011;10749;46.296;7.524;2022-11-25T10:17:14;2.57;;;1.20;;
21181;SDS011;10749;46.296;7.524;2022-11-25T10:19:57;3.57;;;1.33;;
21181;SDS011;10749;46.296;7.524;2022-11-25T10:22:36;5.70;;;1.80;;
21181;SDS011;10749;46.296;7.524;2022-11-25T10:25:11;4.03;;;1.70;;
21181;SDS011;10749;46.296;7.524;2022-11-25T10:30:18;6.17;;;2.40;;
21181;SDS011;10749;46.296;7.524;2022-11-25T10:32:48;6.40;;;3.37;;
21181;SDS011;10749;46.296;7.524;2022-11-25T10:35:22;15.50;;;8.10;;
21181;SDS011;10749;46.296;7.524;2022-11-25T10:37:52;16.07;;;7.83;;
21181;SDS011;10749;46.296;7.524;2022-11-25T10:40:20;36.10;;;17.97;;
21181;SDS011;10749;46.296;7.524;2022-11-25T10:42:46;19.27;;;7.93;;
21181;SDS011;10749;46.296;7.524;2022-11-25T10:45:11;11.80;;;6.60;;
21181;SDS011;10749;46.296;7.524;2022-11-25T10:53:10;11.77;;;5.73;;
21181;SDS011;10749;46.296;7.524;2022-11-25T10:55:40;10.60;;;4.67;;
21181;SDS011;10749;46.296;7.524;2022-11-25T10:58:25;12.37;;;3.70;;
21181;SDS011;10749;46.296;7.524;2022-11-25T11:01:04;8.03;;;3.23;;
21181;SDS011;10749;46.296;7.524;2022-11-25T11:03:33;6.67;;;3.07;;
21181;SDS011;10749;46.296;7.524;2022-11-25T11:05:58;7.30;;;2.90;;
21181;SDS011;10749;46.296;7.524;2022-11-25T11:08:25;6.13;;;2.83;;
21181;SDS011;10749;46.296;7.524;2022-11-25T11:13:41;4.57;;;2.30;;
21181;SDS011;10749;46.296;7.524;2022-11-25T11:18:53;7.87;;;3.63;;
21181;SDS011;10749;46.296;7.524;2022-11-25T11:21:21;7.07;;;3.13;;
21181;SDS011;10749;46.296;7.524;2022-11-25T11:23:50;5.20;;;3.40;;
21181;SDS011;10749;46.296;7.524;2022-11-25T11:26:21;5.53;;;3.10;;
21181;SDS011;10749;46.296;7.524;2022-11-25T11:28:47;4.30;;;2.30;;
21181;SDS011;10749;46.296;7.524;2022-11-25T11:31:33;5.93;;;1.97;;
21181;SDS011;10749;46.296;7.524;2022-11-25T11:42:26;4.50;;;2.07;;
21181;SDS011;10749;46.296;7.524;2022-11-25T11:50:32;2.37;;;1.63;;
21181;SDS011;10749;46.296;7.524;2022-11-25T11:56:10;3.90;;;1.13;;
21181;SDS011;10749;46.296;7.524;2022-11-25T11:59:08;2.70;;;0.80;;
21181;SDS011;10749;46.296;7.524;2022-11-25T12:04:44;2.20;;;0.97;;
21181;SDS011;10749;46.296;7.524;2022-11-25T12:10:10;2.33;;;1.13;;
21181;SDS011;10749;46.296;7.524;2022-11-25T12:12:55;2.70;;;1.20;;
21181;SDS011;10749;46.296;7.524;2022-11-25T12:15:56;1.73;;;1.10;;
21181;SDS011;10749;46.296;7.524;2022-11-25T12:18:28;2.77;;;1.20;;
21181;SDS011;10749;46.296;7.524;2022-11-25T12:21:06;2.73;;;1.13;;
21181;SDS011;10749;46.296;7.524;2022-11-25T12:26:19;2.20;;;1.20;;
21181;SDS011;10749;46.296;7.524;2022-11-25T12:28:53;3.77;;;1.10;;
21181;SDS011;10749;46.296;7.524;2022-11-25T12:31:26;4.83;;;1.20;;
21181;SDS011;10749;46.296;7.524;2022-11-25T12:34:01;3.70;;;1.73;;
21181;SDS011;10749;46.296;7.524;2022-11-25T12:36:33;2.50;;;1.30;;
21181;SDS011;10749;46.296;7.524;2022-11-25T12:39:14;3.93;;;1.67;;
21181;SDS011;10749;46.296;7.524;2022-11-25T12:41:53;3.90;;;1.43;;
21181;SDS011;10749;46.296;7.524;2022-11-25T12:47:08;3.57;;;1.60;;
21181;SDS011;10749;46.296;7.524;2022-11-25T12:49:40;5.63;;;1.63;;
21181;SDS011;10749;46.296;7.524;2022-11-25T13:00:21;3.17;;;1.03;;
21181;SDS011;10749;46.296;7.524;2022-11-25T13:08:18;3.87;;;1.10;;
21181;SDS011;10749;46.296;7.524;2022-11-25T13:13:46;2.53;;;0.80;;
21181;SDS011;10749;46.296;7.524;2022-11-25T13:16:16;2.60;;;0.90;;
21181;SDS011;10749;46.296;7.524;2022-11-25T13:18:43;3.37;;;0.80;;
21181;SDS011;10749;46.296;7.524;2022-11-25T13:21:10;3.53;;;1.17;;
21181;SDS011;10749;46.296;7.524;2022-11-25T13:23:45;3.03;;;0.83;;
21181;SDS011;10749;46.296;7.524;2022-11-25T13:28:52;4.17;;;1.10;;
21181;SDS011;10749;46.296;7.524;2022-11-25T13:44:22;4.83;;;1.10;;
21181;SDS011;10749;46.296;7.524;2022-11-25T13:48:59;5.23;;;0.80;;
21181;SDS011;10749;46.296;7.524;2022-11-25T13:51:24;2.43;;;1.00;;
21181;SDS011;10749;46.296;7.524;2022-11-25T13:53:58;1.87;;;0.90;;
21181;SDS011;10749;46.296;7.524;2022-11-25T13:56:29;2.83;;;0.87;;
21181;SDS011;10749;46.296;7.524;2022-11-25T14:01:36;1.67;;;0.80;;
21181;SDS011;10749;46.296;7.524;2022-11-25T14:04:08;2.77;;;1.13;;
21181;SDS011;10749;46.296;7.524;2022-11-25T14:09:53;2.40;;;0.83;;
21181;SDS011;10749;46.296;7.524;2022-11-25T14:15:24;2.10;;;1.00;;
21181;SDS011;10749;46.296;7.524;2022-11-25T14:18:39;2.03;;;0.70;;
21181;SDS011;10749;46.296;7.524;2022-11-25T14:22:17;4.13;;;0.80;;
21181;SDS011;10749;46.296;7.524;2022-11-25T14:24:33;1.73;;;0.70;;
21181;SDS011;10749;46.296;7.524;2022-11-25T14:27:02;3.10;;;0.83;;
21181;SDS011;10749;46.296;7.524;2022-11-25T14:32:21;4.17;;;1.30;;
21181;SDS011;10749;46.296;7.524;2022-11-25T14:34:56;2.03;;;1.10;;
21181;SDS011;10749;46.296;7.524;2022-11-25T14:38:12;3.30;;;1.37;;
21181;SDS011;10749;46.296;7.524;2022-11-25T14:40:26;1.87;;;0.80;;
21181;SDS011;10749;46.296;7.524;2022-11-25T14:43:01;2.53;;;0.80;;
21181;SDS011;10749;46.296;7.524;2022-11-25T14:45:31;4.97;;;0.90;;
21181;SDS011;10749;46.296;7.524;2022-11-25T14:48:10;2.30;;;0.70;;
21181;SDS011;10749;46.296;7.524;2022-11-25T14:50:37;2.17;;;0.90;;
21181;SDS011;10749;46.296;7.524;2022-11-25T14:53:04;3.30;;;0.83;;
21181;SDS011;10749;46.296;7.524;2022-11-25T14:55:31;7.93;;;3.17;;
21181;SDS011;10749;46.296;7.524;2022-11-25T14:57:57;5.07;;;2.80;;
21181;SDS011;10749;46.296;7.524;2022-11-25T15:00:22;7.27;;;2.80;;
21181;SDS011;10749;46.296;7.524;2022-11-25T15:03:05;6.50;;;3.70;;
21181;SDS011;10749;46.296;7.524;2022-11-25T15:05:41;3.87;;;2.37;;
21181;SDS011;10749;46.296;7.524;2022-11-25T15:08:12;5.00;;;3.37;;
21181;SDS011;10749;46.296;7.524;2022-11-25T15:13:26;8.40;;;5.07;;
21181;SDS011;10749;46.296;7.524;2022-11-25T15:15:57;5.80;;;3.93;;
21181;SDS011;10749;46.296;7.524;2022-11-25T15:18:51;5.27;;;2.40;;
21181;SDS011;10749;46.296;7.524;2022-11-25T15:21:20;6.93;;;3.30;;
21181;SDS011;10749;46.296;7.524;2022-11-25T15:23:51;4.73;;;2.70;;
21181;SDS011;10749;46.296;7.524;2022-11-25T15:26:24;3.37;;;2.37;;
21181;SDS011;10749;46.296;7.524;2022-11-25T15:28:54;4.13;;;2.30;;
21181;SDS011;10749;46.296;7.524;2022-11-25T15:31:26;4.77;;;2.00;;
21181;SDS011;10749;46.296;7.524;2022-11-25T15:33:55;3.43;;;2.37;;
21181;SDS011;10749;46.296;7.524;2022-11-25T15:36:23;3.53;;;2.00;;
21181;SDS011;10749;46.296;7.524;2022-11-25T15:38:49;3.60;;;1.50;;
21181;SDS011;10749;46.296;7.524;2022-11-25T15:41:20;4.70;;;1.73;;
21181;SDS011;10749;46.296;7.524;2022-11-25T15:43:54;4.13;;;1.87;;
21181;SDS011;10749;46.296;7.524;2022-11-25T15:46:22;4.87;;;2.03;;
21181;SDS011;10749;46.296;7.524;2022-11-25T15:48:50;4.77;;;1.73;;
21181;SDS011;10749;46.296;7.524;2022-11-25T15:54:06;6.77;;;2.00;;
21181;SDS011;10749;46.296;7.524;2022-11-25T15:56:45;2.33;;;1.50;;
21181;SDS011;10749;46.296;7.524;2022-11-25T16:07:53;2.33;;;1.37;;
21181;SDS011;10749;46.296;7.524;2022-11-25T16:15:47;6.07;;;1.40;;
21181;SDS011;10749;46.296;7.524;2022-11-25T16:18:16;6.17;;;1.80;;
21181;SDS011;10749;46.296;7.524;2022-11-25T16:20:50;4.40;;;2.10;;
21181;SDS011;10749;46.296;7.524;2022-11-25T16:23:18;10.43;;;6.00;;
21181;SDS011;10749;46.296;7.524;2022-11-25T16:25:47;3.60;;;1.87;;
21181;SDS011;10749;46.296;7.524;2022-11-25T16:28:20;13.77;;;6.87;;
21181;SDS011;10749;46.296;7.524;2022-11-25T16:30:46;5.77;;;3.13;;
21181;SDS011;10749;46.296;7.524;2022-11-25T16:33:12;5.57;;;3.10;;
21181;SDS011;10749;46.296;7.524;2022-11-25T16:35:37;3.57;;;1.70;;
21181;SDS011;10749;46.296;7.524;2022-11-25T16:38:03;2.23;;;1.30;;
21181;SDS011;10749;46.296;7.524;2022-11-25T16:40:28;4.03;;;1.40;;
21181;SDS011;10749;46.296;7.524;2022-11-25T16:42:53;3.23;;;1.40;;
21181;SDS011;10749;46.296;7.524;2022-11-25T16:45:20;2.50;;;1.70;;
21181;SDS011;10749;46.296;7.524;2022-11-25T16:47:50;4.73;;;1.80;;
21181;SDS011;10749;46.296;7.524;2022-11-25T16:50:16;5.60;;;1.80;;
21181;SDS011;10749;46.296;7.524;2022-11-25T16:52:43;2.70;;;1.77;;
21181;SDS011;10749;46.296;7.524;2022-11-25T16:55:08;7.00;;;2.00;;
21181;SDS011;10749;46.296;7.524;2022-11-25T16:57:34;4.93;;;2.37;;
21181;SDS011;10749;46.296;7.524;2022-11-25T17:00:02;5.13;;;2.30;;
21181;SDS011;10749;46.296;7.524;2022-11-25T17:02:32;6.30;;;2.80;;
21181;SDS011;10749;46.296;7.524;2022-11-25T17:05:05;8.27;;;2.70;;
21181;SDS011;10749;46.296;7.524;2022-11-25T17:07:48;4.03;;;2.13;;